Time;durP1;ratioP1;P1;durP2;ratioP2;P2;SDS_P1;SDS_P2;PMS_P1;PMS_P2;Temp;Humidity;BMP_temperature;BMP_pressure;BME280_temperature;BME280_humidity;BME280_pressure;Samples;Min_cycle;Max_cycle;Signal;HPM_P1;HPM_P2
2022/08/23 00:02:27;;;;;;;9.45;6.68;;;;;;;;;;5071767;28;20060;-72
2022/08/23 00:05:02;;;;;;;10.88;6.55;;;;;;;;;;5090324;28;20062;-73
2022/08/23 00:07:39;;;;;;;13.75;6.40;;;;;;;;;;5090503;28;20051;-72
2022/08/23 00:10:13;;;;;;;11.75;6.43;;;;;;;;;;5089931;28;20044;-72
2022/08/23 00:12:45;;;;;;;10.93;7.45;;;;;;;;;;5089261;28;20052;-72
2022/08/23 00:15:17;;;;;;;14.18;8.07;;;;;;;;;;5089115;28;20162;-73
2022/08/23 00:17:47;;;;;;;12.15;6.53;;;;;;;;;;5089828;28;20059;-72
2022/08/23 00:20:19;;;;;;;12.38;6.68;;;;;;;;;;5072160;28;20561;-73
2022/08/23 00:22:49;;;;;;;9.93;6.35;;;;;;;;;;5089877;28;20044;-72
2022/08/23 00:25:19;;;;;;;9.60;6.60;;;;;;;;;;5078521;28;20056;-72
2022/08/23 00:27:51;;;;;;;16.85;9.30;;;;;;;;;;5069503;28;20048;-72
2022/08/23 00:30:21;;;;;;;12.93;6.78;;;;;;;;;;5068939;28;20052;-73
2022/08/23 00:32:52;;;;;;;15.98;10.55;;;;;;;;;;5034671;28;20044;-72
2022/08/23 00:35:26;;;;;;;20.30;12.48;;;;;;;;;;5069372;28;20546;-72
2022/08/23 00:37:57;;;;;;;21.33;13.30;;;;;;;;;;5068727;28;20071;-73
2022/08/23 00:40:51;;;;;;;11.73;7.00;;;;;;;;;;5049848;28;20045;-73
2022/08/23 00:49:33;;;;;;;11.20;7.30;;;;;;;;;;5049652;28;20053;-71
2022/08/23 00:52:12;;;;;;;11.38;7.72;;;;;;;;;;5049468;28;20045;-73
2022/08/23 00:54:43;;;;;;;13.23;7.63;;;;;;;;;;5049419;28;20045;-72
2022/08/23 00:57:18;;;;;;;13.07;7.80;;;;;;;;;;5048403;28;20064;-72
2022/08/23 00:59:48;;;;;;;12.80;8.48;;;;;;;;;;5048014;28;20063;-71
2022/08/23 01:02:17;;;;;;;;;;;;;;;;;;5049744;28;20053;-72
2022/08/23 01:04:55;;;;;;;14.13;7.10;;;;;;;;;;5048815;28;19936;-71
2022/08/23 01:07:42;;;;;;;14.02;8.48;;;;;;;;;;5048804;28;20049;-71
2022/08/23 01:10:46;;;;;;;13.68;8.35;;;;;;;;;;5047673;28;20544;-70
2022/08/23 01:13:54;;;;;;;11.65;7.68;;;;;;;;;;5048852;28;20049;-71
2022/08/23 01:16:46;;;;;;;12.77;7.15;;;;;;;;;;5045201;28;20507;-72
2022/08/23 01:19:46;;;;;;;11.30;8.35;;;;;;;;;;5018365;28;20435;-71
2022/08/23 01:22:27;;;;;;;14.30;8.27;;;;;;;;;;5029735;28;20590;-72
2022/08/23 01:24:58;;;;;;;12.43;7.45;;;;;;;;;;5030229;28;20060;-71
2022/08/23 01:27:39;;;;;;;13.18;8.10;;;;;;;;;;5047450;28;20056;-72
2022/08/23 01:30:16;;;;;;;11.40;7.40;;;;;;;;;;5046476;28;20056;-71
2022/08/23 01:32:57;;;;;;;14.55;8.65;;;;;;;;;;5047319;28;20206;-72
2022/08/23 01:35:37;;;;;;;12.52;7.47;;;;;;;;;;5046820;28;20057;-72
2022/08/23 01:38:09;;;;;;;15.43;8.82;;;;;;;;;;5029470;28;20526;-73
2022/08/23 01:40:41;;;;;;;17.20;8.82;;;;;;;;;;5047284;28;20057;-72
2022/08/23 01:43:13;;;;;;;13.32;7.38;;;;;;;;;;5047830;28;20064;-72
2022/08/23 01:45:43;;;;;;;11.63;8.07;;;;;;;;;;5046500;28;20535;-72
2022/08/23 01:48:15;;;;;;;11.45;7.00;;;;;;;;;;5047593;28;20064;-71
2022/08/23 01:50:46;;;;;;;11.50;7.45;;;;;;;;;;5048083;28;20041;-71
2022/08/23 01:53:17;;;;;;;11.63;7.95;;;;;;;;;;5028718;28;20052;-71
2022/08/23 01:55:50;;;;;;;10.15;6.60;;;;;;;;;;5029024;28;20504;-72
2022/08/23 01:58:21;;;;;;;12.27;6.95;;;;;;;;;;5029731;28;20049;-71
2022/08/23 02:00:51;;;;;;;11.75;7.03;;;;;;;;;;5029055;28;20496;-71
2022/08/23 02:03:21;;;;;;;14.45;7.68;;;;;;;;;;5046281;28;20049;-71
2022/08/23 02:05:51;;;;;;;12.27;7.57;;;;;;;;;;5012761;28;20512;-71
2022/08/23 02:11:10;;;;;;;;;;;;;;;;;;5046626;28;20045;-71
2022/08/23 02:13:41;;;;;;;14.63;8.05;;;;;;;;;;5029788;28;19932;-71
2022/08/23 02:16:13;;;;;;;13.93;8.32;;;;;;;;;;5046692;28;20505;-71
2022/08/23 02:18:43;;;;;;;14.48;8.05;;;;;;;;;;5047981;28;20427;-72
2022/08/23 02:21:15;;;;;;;14.10;8.07;;;;;;;;;;5045781;28;20508;-71
2022/08/23 02:23:46;;;;;;;15.60;8.20;;;;;;;;;;5028527;28;20049;-71
2022/08/23 02:26:16;;;;;;;15.77;8.13;;;;;;;;;;5047783;28;20041;-71
2022/08/23 02:28:51;;;;;;;12.35;7.78;;;;;;;;;;5046210;28;20052;-71
2022/08/23 02:31:25;;;;;;;15.35;8.60;;;;;;;;;;5029141;28;20779;-71
2022/08/23 02:33:55;;;;;;;15.85;9.73;;;;;;;;;;5045882;28;20448;-71
2022/08/23 02:36:28;;;;;;;16.23;9.00;;;;;;;;;;5045421;28;20145;-70
2022/08/23 02:38:59;;;;;;;16.55;9.77;;;;;;;;;;5045765;28;20056;-71
2022/08/23 02:41:30;;;;;;;16.33;10.13;;;;;;;;;;5047690;28;20053;-71
2022/08/23 02:44:00;;;;;;;13.02;7.85;;;;;;;;;;5028762;28;20068;-71
2022/08/23 02:46:30;;;;;;;14.40;8.57;;;;;;;;;;5028645;28;20056;-70
2022/08/23 02:49:00;;;;;;;14.02;7.85;;;;;;;;;;5045113;28;20041;-70
2022/08/23 02:51:30;;;;;;;16.00;8.30;;;;;;;;;;5028531;28;20051;-71
2022/08/23 02:54:00;;;;;;;;;;;;;;;;;;5046095;28;20049;-71
2022/08/23 02:56:30;;;;;;;15.95;8.85;;;;;;;;;;5044939;28;19925;-72
2022/08/23 02:59:00;;;;;;;17.77;10.77;;;;;;;;;;5045164;28;20064;-70
2022/08/23 03:01:31;;;;;;;;;;;;;;;;;;5029140;28;20049;-71
2022/08/23 03:04:14;;;;;;;20.00;9.50;;;;;;;;;;5028439;28;19931;-71
2022/08/23 03:06:44;;;;;;;16.63;10.10;;;;;;;;;;5046643;28;20053;-71
2022/08/23 03:09:13;;;;;;;;;;;;;;;;;;5045605;28;20500;-70
2022/08/23 03:11:46;;;;;;;14.18;8.20;;;;;;;;;;5046977;28;20307;-72
2022/08/23 03:14:18;;;;;;;16.02;10.00;;;;;;;;;;5044762;28;20053;-71
2022/08/23 03:16:48;;;;;;;20.35;8.85;;;;;;;;;;5045137;28;20056;-71
2022/08/23 03:19:19;;;;;;;16.50;9.27;;;;;;;;;;5028981;28;20515;-71
2022/08/23 03:21:48;;;;;;;11.88;7.68;;;;;;;;;;5044979;28;20530;-71
2022/08/23 03:24:20;;;;;;;17.60;9.13;;;;;;;;;;5044628;28;20060;-70
2022/08/23 03:26:50;;;;;;;16.50;9.32;;;;;;;;;;5044984;28;21136;-70
2022/08/23 03:29:21;;;;;;;18.08;9.20;;;;;;;;;;5028833;28;20554;-72
2022/08/23 03:32:00;;;;;;;15.93;9.32;;;;;;;;;;5045984;28;20072;-70
2022/08/23 03:34:34;;;;;;;19.08;10.25;;;;;;;;;;5028454;28;20056;-72
2022/08/23 03:37:07;;;;;;;22.48;11.27;;;;;;;;;;5044634;28;20411;-71
2022/08/23 03:39:37;;;;;;;19.92;10.60;;;;;;;;;;5028523;28;20411;-71
2022/08/23 03:42:08;;;;;;;17.23;10.77;;;;;;;;;;5027284;28;20057;-71
2022/08/23 03:44:38;;;;;;;17.30;9.60;;;;;;;;;;5027400;28;20065;-70
2022/08/23 03:47:08;;;;;;;15.38;10.45;;;;;;;;;;5044730;28;20049;-72
2022/08/23 03:49:40;;;;;;;24.15;10.30;;;;;;;;;;5027237;28;20064;-71
2022/08/23 03:52:11;;;;;;;18.52;10.88;;;;;;;;;;5046757;28;20508;-71
2022/08/23 03:54:40;;;;;;;17.50;10.27;;;;;;;;;;5027850;28;20049;-71
2022/08/23 03:57:12;;;;;;;20.33;11.10;;;;;;;;;;5043805;28;20061;-71
2022/08/23 03:59:43;;;;;;;20.50;11.63;;;;;;;;;;5044588;28;20052;-71
2022/08/23 04:02:13;;;;;;;21.63;11.13;;;;;;;;;;5046934;28;20057;-72
2022/08/23 04:04:44;;;;;;;21.20;11.55;;;;;;;;;;5044812;28;20045;-72
2022/08/23 04:07:37;;;;;;;18.63;11.10;;;;;;;;;;5044239;28;20049;-71
2022/08/23 04:10:13;;;;;;;18.58;10.85;;;;;;;;;;5027373;28;20596;-71
2022/08/23 04:12:48;;;;;;;22.13;11.38;;;;;;;;;;5044586;28;20385;-71
2022/08/23 04:15:19;;;;;;;23.00;11.25;;;;;;;;;;5044750;28;20076;-71
2022/08/23 04:17:49;;;;;;;23.08;11.30;;;;;;;;;;5046192;28;20067;-70
2022/08/23 04:20:19;;;;;;;24.63;12.30;;;;;;;;;;5044651;28;20053;-71
2022/08/23 04:22:55;;;;;;;26.77;13.20;;;;;;;;;;5044174;28;20053;-71
2022/08/23 04:25:27;;;;;;;23.45;12.13;;;;;;;;;;5046018;28;20048;-71
2022/08/23 04:28:05;;;;;;;28.83;13.35;;;;;;;;;;5044632;28;20053;-71
2022/08/23 04:30:35;;;;;;;25.17;12.32;;;;;;;;;;5045742;28;20049;-71
2022/08/23 04:33:07;;;;;;;21.65;10.27;;;;;;;;;;5045772;28;20056;-71
2022/08/23 04:35:41;;;;;;;19.80;10.85;;;;;;;;;;5044148;28;20516;-72
2022/08/23 04:38:12;;;;;;;21.95;11.90;;;;;;;;;;5044306;28;20057;-71
2022/08/23 04:43:46;;;;;;;18.13;9.95;;;;;;;;;;5043719;28;20049;-71
2022/08/23 04:46:17;;;;;;;20.95;11.70;;;;;;;;;;5028532;28;20060;-71
2022/08/23 04:48:47;;;;;;;20.80;12.40;;;;;;;;;;5049661;28;20075;-71
2022/08/23 04:51:21;;;;;;;22.73;11.75;;;;;;;;;;5030909;28;20072;-71
2022/08/23 04:53:51;;;;;;;21.75;11.10;;;;;;;;;;5047274;28;20053;-71
2022/08/23 04:56:52;;;;;;;24.95;12.63;;;;;;;;;;5015905;28;20416;-71
2022/08/23 04:59:23;;;;;;;23.98;12.32;;;;;;;;;;5047792;28;20048;-71
2022/08/23 05:01:53;;;;;;;22.08;11.75;;;;;;;;;;5049463;28;20040;-71
2022/08/23 05:04:22;;;;;;;;;;;;;;;;;;5047499;28;20045;-71
2022/08/23 05:06:52;;;;;;;21.75;11.45;;;;;;;;;;5047519;28;20302;-70
2022/08/23 05:09:23;;;;;;;25.80;12.85;;;;;;;;;;5047732;28;20492;-71
2022/08/23 05:11:54;;;;;;;29.15;12.68;;;;;;;;;;5048635;28;20056;-70
2022/08/23 05:14:25;;;;;;;22.98;13.07;;;;;;;;;;5047466;28;20076;-71
2022/08/23 05:16:56;;;;;;;23.10;12.63;;;;;;;;;;5046998;28;20057;-71
2022/08/23 05:19:27;;;;;;;21.80;11.63;;;;;;;;;;5047262;28;20052;-71
2022/08/23 05:21:57;;;;;;;26.00;12.25;;;;;;;;;;5049053;28;20057;-71
2022/08/23 05:24:45;;;;;;;22.48;12.25;;;;;;;;;;5030720;28;20060;-72
2022/08/23 05:27:15;;;;;;;21.48;11.52;;;;;;;;;;5048937;28;20049;-70
2022/08/23 05:29:46;;;;;;;;;;;;;;;;;;5047405;28;20049;-71
2022/08/23 05:32:15;;;;;;;26.60;13.30;;;;;;;;;;5046610;28;20284;-72
2022/08/23 05:34:45;;;;;;;;;;;;;;;;;;5031099;28;20055;-71
2022/08/23 05:37:16;;;;;;;49.35;10.02;;;;;;;;;;5030714;28;20384;-71
2022/08/23 05:39:46;;;;;;;26.02;12.32;;;;;;;;;;5047004;28;20049;-71
2022/08/23 05:42:18;;;;;;;22.77;11.23;;;;;;;;;;5030600;28;20508;-71
2022/08/23 05:44:48;;;;;;;22.13;10.75;;;;;;;;;;5046784;28;20056;-71
2022/08/23 05:47:20;;;;;;;21.77;11.32;;;;;;;;;;5046629;28;20064;-72
2022/08/23 05:50:02;;;;;;;26.77;12.70;;;;;;;;;;5047071;28;20049;-70
2022/08/23 05:52:35;;;;;;;32.40;12.23;;;;;;;;;;5046207;28;20048;-71
2022/08/23 05:55:06;;;;;;;25.65;12.13;;;;;;;;;;5046751;28;20059;-71
2022/08/23 05:57:55;;;;;;;25.48;11.85;;;;;;;;;;5046386;28;20068;-71
2022/08/23 06:00:27;;;;;;;62.13;12.27;;;;;;;;;;5029845;28;20400;-71
2022/08/23 06:03:09;;;;;;;23.40;12.30;;;;;;;;;;5029333;28;20404;-71
2022/08/23 06:05:41;;;;;;;29.20;10.73;;;;;;;;;;5030564;28;20072;-71
2022/08/23 06:08:12;;;;;;;34.92;12.05;;;;;;;;;;5046503;28;20058;-71
2022/08/23 06:10:42;;;;;;;26.33;13.57;;;;;;;;;;5046524;28;20358;-71
2022/08/23 06:13:23;;;;;;;23.95;11.70;;;;;;;;;;5029362;28;20052;-71
2022/08/23 06:15:54;;;;;;;26.25;12.35;;;;;;;;;;5046847;28;20053;-72
2022/08/23 06:18:27;;;;;;;34.05;13.40;;;;;;;;;;5029161;28;20053;-71
2022/08/23 06:21:17;;;;;;;44.47;9.63;;;;;;;;;;5045724;28;20076;-71
2022/08/23 06:23:49;;;;;;;53.78;11.18;;;;;;;;;;5028936;28;20040;-72
2022/08/23 06:26:27;;;;;;;36.58;10.27;;;;;;;;;;5029129;28;20053;-70
2022/08/23 06:29:01;;;;;;;51.88;10.90;;;;;;;;;;5045747;28;20048;-71
2022/08/23 06:31:49;;;;;;;87.45;11.23;;;;;;;;;;5046448;28;20059;-70
2022/08/23 06:34:37;;;;;;;45.88;9.43;;;;;;;;;;5029614;28;20048;-70
2022/08/23 06:37:13;;;;;;;63.17;11.50;;;;;;;;;;5051123;28;20068;-72
2022/08/23 06:40:03;;;;;;;48.10;10.85;;;;;;;;;;5048394;28;20507;-70
2022/08/23 06:42:47;;;;;;;86.32;10.38;;;;;;;;;;5045598;28;20049;-71
2022/08/23 06:45:21;;;;;;;39.35;9.73;;;;;;;;;;5046360;28;20057;-71
2022/08/23 06:48:04;;;;;;;55.47;11.05;;;;;;;;;;5028867;28;20049;-72
2022/08/23 06:50:34;;;;;;;55.47;9.40;;;;;;;;;;5047411;28;20048;-72
2022/08/23 06:53:22;;;;;;;52.78;11.68;;;;;;;;;;5051398;28;20052;-71
2022/08/23 06:56:18;;;;;;;52.13;10.57;;;;;;;;;;5038723;28;20057;-71
2022/08/23 06:59:05;;;;;;;34.88;10.20;;;;;;;;;;5045560;28;20068;-71
2022/08/23 07:02:05;;;;;;;52.60;10.18;;;;;;;;;;5051768;28;21191;-71
2022/08/23 07:05:05;;;;;;;37.22;9.35;;;;;;;;;;5046811;28;20057;-71
2022/08/23 07:07:42;;;;;;;75.88;10.82;;;;;;;;;;5029286;28;20558;-71
2022/08/23 07:10:14;;;;;;;83.85;10.52;;;;;;;;;;5044600;28;20052;-70
2022/08/23 07:12:44;;;;;;;62.70;10.32;;;;;;;;;;5045011;28;20052;-71
2022/08/23 07:15:15;;;;;;;32.05;9.20;;;;;;;;;;5046485;28;20052;-71
2022/08/23 07:17:46;;;;;;;46.67;8.90;;;;;;;;;;5028068;28;20052;-71
2022/08/23 07:20:15;;;;;;;;;;;;;;;;;;5047619;28;20409;-70
2022/08/23 07:22:45;;;;;;;20.90;7.63;;;;;;;;;;5044967;28;19928;-72
2022/08/23 07:25:16;;;;;;;28.65;7.90;;;;;;;;;;5045273;28;20049;-71
2022/08/23 07:27:50;;;;;;;29.80;8.10;;;;;;;;;;5044445;28;20496;-72
2022/08/23 07:30:20;;;;;;;36.97;8.35;;;;;;;;;;5047026;28;20049;-70
2022/08/23 07:32:52;;;;;;;42.28;9.30;;;;;;;;;;5027683;28;20508;-69
2022/08/23 07:35:24;;;;;;;45.88;10.07;;;;;;;;;;5046574;28;20518;-71
2022/08/23 07:37:56;;;;;;;34.17;10.52;;;;;;;;;;5044935;28;20516;-71
2022/08/23 07:40:31;;;;;;;;;;;;;;;;;;5028924;28;20057;-70
2022/08/23 07:43:07;;;;;;;25.23;8.55;;;;;;;;;;5044674;28;19947;-71
2022/08/23 07:45:39;;;;;;;37.67;9.40;;;;;;;;;;5044806;28;20061;-71
2022/08/23 07:48:11;;;;;;;18.50;8.00;;;;;;;;;;5028703;28;20044;-71
2022/08/23 07:51:06;;;;;;;14.48;7.00;;;;;;;;;;5027903;28;20049;-71
2022/08/23 07:53:39;;;;;;;18.90;7.93;;;;;;;;;;5044396;28;20063;-71
2022/08/23 07:56:18;;;;;;;23.25;8.48;;;;;;;;;;5044672;28;20049;-71
2022/08/23 07:59:14;;;;;;;25.67;8.70;;;;;;;;;;5044162;28;20065;-70
2022/08/23 08:02:03;;;;;;;24.08;7.97;;;;;;;;;;5050826;28;20044;-71
2022/08/23 08:04:34;;;;;;;42.85;8.25;;;;;;;;;;5044559;28;20057;-72
2022/08/23 08:07:04;;;;;;;33.13;8.07;;;;;;;;;;5027777;28;20048;-72
2022/08/23 08:09:58;;;;;;;25.75;7.78;;;;;;;;;;5027793;28;20056;-71
2022/08/23 08:12:31;;;;;;;45.10;8.88;;;;;;;;;;5044394;28;20408;-71
2022/08/23 08:15:10;;;;;;;48.95;8.93;;;;;;;;;;5028236;28;20060;-71
2022/08/23 08:17:41;;;;;;;34.45;8.32;;;;;;;;;;5044323;28;20049;-72
2022/08/23 08:20:18;;;;;;;19.27;7.53;;;;;;;;;;5046697;28;20071;-71
2022/08/23 08:23:08;;;;;;;46.00;8.18;;;;;;;;;;5028221;28;20048;-71
2022/08/23 08:26:01;;;;;;;;;;;;;;;;;;5052908;28;20057;-71
2022/08/23 08:28:33;;;;;;;45.40;7.13;;;;;;;;;;5048032;28;19932;-72
2022/08/23 08:31:04;;;;;;;32.15;10.18;;;;;;;;;;5047875;28;20602;-71
2022/08/23 08:33:35;;;;;;;53.85;9.25;;;;;;;;;;5031271;28;20049;-71
2022/08/23 08:36:08;;;;;;;26.48;6.88;;;;;;;;;;5048914;28;20049;-72
2022/08/23 08:38:39;;;;;;;40.90;7.57;;;;;;;;;;5047515;28;20052;-71
2022/08/23 08:41:39;;;;;;;26.98;7.57;;;;;;;;;;5047753;28;20515;-71
2022/08/23 08:44:44;;;;;;;24.70;9.63;;;;;;;;;;5047643;28;20381;-71
2022/08/23 08:47:44;;;;;;;51.55;9.02;;;;;;;;;;5002322;28;20057;-72
2022/08/23 08:50:36;;;;;;;47.83;7.90;;;;;;;;;;5031098;28;20064;-69
2022/08/23 08:53:38;;;;;;;25.48;7.38;;;;;;;;;;5049704;28;20392;-71
2022/08/23 08:56:27;;;;;;;33.00;10.43;;;;;;;;;;5049527;28;20049;-71
2022/08/23 08:59:25;;;;;;;23.23;7.70;;;;;;;;;;5048515;28;20053;-71
2022/08/23 09:01:57;;;;;;;40.28;7.53;;;;;;;;;;5047066;28;20059;-71
2022/08/23 09:04:36;;;;;;;24.70;7.55;;;;;;;;;;5047321;28;20059;-71
2022/08/23 09:07:18;;;;;;;21.15;7.53;;;;;;;;;;5031388;28;20052;-71
2022/08/23 09:10:19;;;;;;;34.55;7.70;;;;;;;;;;5046870;28;20064;-70
2022/08/23 09:14:05;;;;;;;55.90;8.05;;;;;;;;;;5048136;28;20048;-71
2022/08/23 09:16:56;;;;;;;23.25;8.13;;;;;;;;;;5010489;28;20049;-71
2022/08/23 09:19:37;;;;;;;67.68;8.70;;;;;;;;;;5047693;28;20419;-72
2022/08/23 09:22:26;;;;;;;89.95;7.70;;;;;;;;;;5030850;28;20780;-70
2022/08/23 09:24:57;;;;;;;52.03;7.40;;;;;;;;;;5047291;28;20053;-71
2022/08/23 09:27:40;;;;;;;42.75;6.88;;;;;;;;;;5046979;28;20080;-70
2022/08/23 09:30:14;;;;;;;49.30;7.95;;;;;;;;;;5047855;28;20068;-71
2022/08/23 09:32:50;;;;;;;38.60;6.53;;;;;;;;;;5047046;28;20064;-71
2022/08/23 09:35:24;;;;;;;62.38;6.55;;;;;;;;;;5046656;28;20072;-71
2022/08/23 09:38:19;;;;;;;41.70;5.63;;;;;;;;;;5030273;28;20415;-71
2022/08/23 09:40:57;;;;;;;71.75;6.93;;;;;;;;;;5030660;28;20052;-71
2022/08/23 09:43:30;;;;;;;96.70;6.90;;;;;;;;;;5046690;28;20049;-70
2022/08/23 09:46:01;;;;;;;93.03;7.03;;;;;;;;;;5030203;28;20428;-70
2022/08/23 09:48:41;;;;;;;104.78;7.07;;;;;;;;;;5047131;28;20056;-72
2022/08/23 09:51:24;;;;;;;134.88;7.47;;;;;;;;;;5046102;28;20444;-71
2022/08/23 09:54:07;;;;;;;62.08;7.93;;;;;;;;;;5046284;28;20064;-70
2022/08/23 09:56:44;;;;;;;93.05;7.72;;;;;;;;;;5048468;28;20056;-70
2022/08/23 09:59:26;;;;;;;42.05;6.03;;;;;;;;;;5046583;28;20052;-74
2022/08/23 10:02:02;;;;;;;;;;;;;;;;;;5046434;28;20887;-72
2022/08/23 10:04:45;;;;;;;32.05;5.50;;;;;;;;;;5046425;28;20319;-75
2022/08/23 10:07:40;;;;;;;75.07;6.85;;;;;;;;;;5046615;28;20060;-72
2022/08/23 10:10:46;;;;;;;101.15;7.47;;;;;;;;;;5046564;28;20064;-70
2022/08/23 10:13:27;;;;;;;51.67;5.60;;;;;;;;;;5046345;28;20044;-71
2022/08/23 10:16:24;;;;;;;98.22;7.70;;;;;;;;;;5046074;28;20128;-71
2022/08/23 10:19:28;;;;;;;89.55;7.30;;;;;;;;;;5045539;28;20064;-72
2022/08/23 10:22:12;;;;;;;83.88;7.65;;;;;;;;;;5047818;28;20052;-71
2022/08/23 10:24:57;;;;;;;53.63;6.30;;;;;;;;;;5046147;28;20053;-71
2022/08/23 10:31:10;;;;;;;55.80;6.35;;;;;;;;;;5045496;28;20056;-72
2022/08/23 10:34:01;;;;;;;24.35;6.07;;;;;;;;;;5029233;28;20397;-72
2022/08/23 10:36:41;;;;;;;15.88;6.45;;;;;;;;;;5045453;28;20136;-71
2022/08/23 10:39:28;;;;;;;35.20;6.88;;;;;;;;;;5045925;28;20065;-71
2022/08/23 10:42:03;;;;;;;32.00;6.35;;;;;;;;;;5026252;28;20060;-70
2022/08/23 10:44:37;;;;;;;31.60;6.72;;;;;;;;;;5044288;28;20049;-73
2022/08/23 10:48:01;;;;;;;29.77;7.10;;;;;;;;;;5045483;28;20392;-71
2022/08/23 10:50:55;;;;;;;26.02;7.50;;;;;;;;;;4985123;28;20050;-71
2022/08/23 10:53:58;;;;;;;13.63;5.57;;;;;;;;;;5045627;28;20049;-75
2022/08/23 10:56:29;;;;;;;21.65;6.50;;;;;;;;;;5047312;28;20076;-71
2022/08/23 10:59:06;;;;;;;42.40;6.55;;;;;;;;;;5029111;28;20053;-71
2022/08/23 11:02:10;;;;;;;24.50;6.65;;;;;;;;;;5045069;28;20442;-72
2022/08/23 11:04:46;;;;;;;39.55;7.78;;;;;;;;;;5029224;28;20519;-71
2022/08/23 11:07:40;;;;;;;16.30;6.45;;;;;;;;;;5044910;28;20401;-73
2022/08/23 11:10:26;;;;;;;30.42;6.22;;;;;;;;;;5044735;28;20512;-72
2022/08/23 11:13:17;;;;;;;36.53;7.45;;;;;;;;;;5045074;28;20045;-72
2022/08/23 11:15:59;;;;;;;12.32;6.60;;;;;;;;;;5045287;28;20055;-72
2022/08/23 11:18:44;;;;;;;21.95;7.07;;;;;;;;;;5045420;28;20052;-71
2022/08/23 11:21:32;;;;;;;12.05;5.75;;;;;;;;;;5028507;28;20049;-72
2022/08/23 11:24:05;;;;;;;27.85;6.10;;;;;;;;;;5044679;28;20367;-71
2022/08/23 11:26:40;;;;;;;11.13;5.65;;;;;;;;;;5027341;28;20052;-72
2022/08/23 11:29:10;;;;;;;11.32;6.93;;;;;;;;;;5043329;28;20056;-72
2022/08/23 11:31:58;;;;;;;13.20;6.72;;;;;;;;;;5044452;28;20076;-71
2022/08/23 11:34:58;;;;;;;13.63;5.90;;;;;;;;;;5044623;28;20057;-71
2022/08/23 11:37:48;;;;;;;16.10;5.47;;;;;;;;;;5025089;28;20049;-71
2022/08/23 11:40:54;;;;;;;9.65;5.72;;;;;;;;;;5045004;28;20053;-72
2022/08/23 11:43:40;;;;;;;15.88;5.05;;;;;;;;;;5045202;28;20064;-71
2022/08/23 11:46:26;;;;;;;11.55;5.97;;;;;;;;;;5028597;28;20053;-73
2022/08/23 11:49:31;;;;;;;15.48;8.43;;;;;;;;;;5045207;28;20415;-72
2022/08/23 11:52:09;;;;;;;7.03;4.88;;;;;;;;;;5046362;28;20045;-71
2022/08/23 11:55:20;;;;;;;11.07;5.53;;;;;;;;;;5047619;28;20088;-71
2022/08/23 11:58:06;;;;;;;9.45;5.18;;;;;;;;;;5052442;28;20523;-71
2022/08/23 12:01:01;;;;;;;8.30;4.68;;;;;;;;;;5053014;28;20057;-71
2022/08/23 12:03:35;;;;;;;8.50;5.68;;;;;;;;;;5053243;28;20419;-72
2022/08/23 12:06:19;;;;;;;8.23;4.88;;;;;;;;;;5052507;28;20056;-72
2022/08/23 12:09:00;;;;;;;8.52;5.32;;;;;;;;;;5052522;28;20048;-72
2022/08/23 12:11:56;;;;;;;6.88;4.65;;;;;;;;;;5033920;28;20508;-72
2022/08/23 12:14:31;;;;;;;7.20;4.38;;;;;;;;;;5026467;28;20053;-71
2022/08/23 12:17:17;;;;;;;5.25;3.88;;;;;;;;;;5052478;28;20512;-74
2022/08/23 12:20:00;;;;;;;7.35;4.90;;;;;;;;;;5052878;28;20052;-72
2022/08/23 12:22:53;;;;;;;9.50;4.43;;;;;;;;;;5052589;28;20044;-72
2022/08/23 12:25:24;;;;;;;8.85;5.47;;;;;;;;;;5053347;28;20611;-72
2022/08/23 12:28:32;;;;;;;11.60;9.43;;;;;;;;;;5053390;28;20057;-72
2022/08/23 12:31:15;;;;;;;12.55;4.20;;;;;;;;;;5053119;28;20522;-72
2022/08/23 12:33:55;;;;;;;6.57;3.53;;;;;;;;;;5052883;28;20729;-72
2022/08/23 12:37:00;;;;;;;6.38;4.60;;;;;;;;;;5052267;28;20048;-72
2022/08/23 12:39:38;;;;;;;7.50;4.97;;;;;;;;;;5003801;28;20053;-73
2022/08/23 12:42:26;;;;;;;9.70;4.18;;;;;;;;;;5052497;28;20420;-75
2022/08/23 12:45:07;;;;;;;7.35;4.00;;;;;;;;;;5051274;28;20057;-72
2022/08/23 12:47:41;;;;;;;7.38;4.18;;;;;;;;;;5052395;28;20074;-72
2022/08/23 12:50:25;;;;;;;6.90;4.20;;;;;;;;;;5053171;28;20044;-73
2022/08/23 12:53:04;;;;;;;6.13;4.00;;;;;;;;;;5051752;28;20045;-73
2022/08/23 12:55:40;;;;;;;5.80;3.70;;;;;;;;;;5052920;28;20052;-73
2022/08/23 12:58:11;;;;;;;6.22;4.82;;;;;;;;;;5050344;28;20057;-74
2022/08/23 13:00:52;;;;;;;8.98;4.50;;;;;;;;;;5050605;28;20080;-76
2022/08/23 13:03:43;;;;;;;9.65;4.93;;;;;;;;;;5052443;28;20393;-73
2022/08/23 13:06:20;;;;;;;8.43;3.90;;;;;;;;;;5050979;28;20048;-73
2022/08/23 13:08:57;;;;;;;8.07;4.68;;;;;;;;;;5049159;28;20053;-73
2022/08/23 13:11:31;;;;;;;5.15;3.45;;;;;;;;;;5049431;28;20047;-73
2022/08/23 13:14:27;;;;;;;4.32;3.30;;;;;;;;;;5049471;28;20052;-73
2022/08/23 13:17:18;;;;;;;5.57;3.35;;;;;;;;;;5049238;28;20041;-73
2022/08/23 13:19:52;;;;;;;6.00;3.53;;;;;;;;;;5048869;28;20056;-73
2022/08/23 13:22:25;;;;;;;5.07;3.55;;;;;;;;;;5049293;28;20061;-74
2022/08/23 13:25:00;;;;;;;4.75;3.20;;;;;;;;;;5049101;28;20045;-72
2022/08/23 13:28:07;;;;;;;8.18;3.63;;;;;;;;;;5049194;28;20416;-74
2022/08/23 13:30:37;;;;;;;5.43;3.40;;;;;;;;;;5048940;28;20048;-72
2022/08/23 13:33:07;;;;;;;4.32;3.28;;;;;;;;;;5048895;28;20492;-74
2022/08/23 13:35:42;;;;;;;4.82;3.53;;;;;;;;;;5049218;28;20049;-74
2022/08/23 13:38:19;;;;;;;4.50;3.10;;;;;;;;;;5049128;28;20521;-74
2022/08/23 13:41:07;;;;;;;8.07;3.90;;;;;;;;;;5048517;28;20049;-74
2022/08/23 13:43:37;;;;;;;;;;;;;;;;;;5048865;28;20048;-75
2022/08/23 13:46:19;;;;;;;4.55;3.63;;;;;;;;;;5048540;28;19925;-75
2022/08/23 13:49:02;;;;;;;6.55;3.72;;;;;;;;;;5048534;28;20162;-73
2022/08/23 13:51:33;;;;;;;5.93;3.83;;;;;;;;;;5048420;28;20045;-74
2022/08/23 13:54:10;;;;;;;5.90;3.78;;;;;;;;;;5048283;28;20662;-74
2022/08/23 13:56:43;;;;;;;8.95;4.75;;;;;;;;;;5048448;28;20041;-74
2022/08/23 13:59:29;;;;;;;8.05;3.50;;;;;;;;;;5047575;28;20531;-76
2022/08/23 14:02:02;;;;;;;7.18;3.50;;;;;;;;;;5048506;28;20064;-74
2022/08/23 14:04:33;;;;;;;5.53;3.30;;;;;;;;;;5047562;28;20047;-74
2022/08/23 14:07:03;;;;;;;4.93;3.30;;;;;;;;;;5047871;28;20049;-74
2022/08/23 14:09:34;;;;;;;6.72;3.08;;;;;;;;;;5048164;28;20048;-74
2022/08/23 14:12:08;;;;;;;4.35;3.08;;;;;;;;;;5048036;28;20423;-75
2022/08/23 14:14:42;;;;;;;4.80;3.13;;;;;;;;;;5048043;28;20049;-75
2022/08/23 14:17:14;;;;;;;4.53;2.63;;;;;;;;;;5048249;28;20049;-73
2022/08/23 14:19:48;;;;;;;4.60;2.45;;;;;;;;;;5046893;28;20053;-75
2022/08/23 14:22:39;;;;;;;6.03;2.60;;;;;;;;;;5046844;28;20504;-75
2022/08/23 14:25:11;;;;;;;6.60;2.70;;;;;;;;;;5048327;28;20053;-75
2022/08/23 14:27:43;;;;;;;3.50;2.63;;;;;;;;;;5030656;28;20051;-75
2022/08/23 14:30:32;;;;;;;3.42;2.83;;;;;;;;;;5047890;28;20045;-75
2022/08/23 14:33:03;;;;;;;7.75;2.53;;;;;;;;;;5047305;28;20068;-75
2022/08/23 14:35:34;;;;;;;6.45;3.17;;;;;;;;;;5047566;28;20048;-76
2022/08/23 14:38:03;;;;;;;4.10;2.20;;;;;;;;;;5047978;28;20037;-74
2022/08/23 14:40:35;;;;;;;13.13;2.60;;;;;;;;;;5047467;28;20503;-76
2022/08/23 14:43:05;;;;;;;4.55;2.70;;;;;;;;;;5047711;28;20504;-76
2022/08/23 14:45:35;;;;;;;4.30;2.53;;;;;;;;;;5047641;28;20433;-74
2022/08/23 14:48:05;;;;;;;3.30;2.42;;;;;;;;;;5047085;28;20044;-74
2022/08/23 14:50:35;;;;;;;4.43;2.47;;;;;;;;;;5048063;28;20049;-75
2022/08/23 14:53:06;;;;;;;5.05;2.17;;;;;;;;;;5047465;28;20060;-73
2022/08/23 14:55:36;;;;;;;5.22;2.50;;;;;;;;;;5045329;28;20649;-73
2022/08/23 14:58:06;;;;;;;3.40;2.20;;;;;;;;;;5047173;28;20080;-73
2022/08/23 15:00:37;;;;;;;3.05;2.00;;;;;;;;;;5047280;28;20075;-73
2022/08/23 15:03:09;;;;;;;4.75;2.08;;;;;;;;;;5046969;28;20060;-76
2022/08/23 15:05:40;;;;;;;3.63;1.88;;;;;;;;;;5046579;28;20496;-73
2022/08/23 15:08:11;;;;;;;2.85;1.83;;;;;;;;;;5047633;28;20060;-78
2022/08/23 15:10:42;;;;;;;4.10;2.70;;;;;;;;;;5046763;28;20045;-75
2022/08/23 15:13:32;;;;;;;3.50;1.75;;;;;;;;;;5047757;28;20041;-77
2022/08/23 15:16:23;;;;;;;4.05;2.30;;;;;;;;;;5046975;28;20033;-73
2022/08/23 15:18:55;;;;;;;4.47;2.10;;;;;;;;;;5047011;28;20419;-75
2022/08/23 15:21:26;;;;;;;4.65;2.40;;;;;;;;;;5046685;28;20379;-75
2022/08/23 15:23:56;;;;;;;6.45;2.63;;;;;;;;;;5046929;28;20056;-74
2022/08/23 15:26:30;;;;;;;4.75;1.90;;;;;;;;;;5046906;28;20048;-74
2022/08/23 15:29:00;;;;;;;9.35;3.08;;;;;;;;;;5046621;28;20396;-75
2022/08/23 15:31:30;;;;;;;2.95;1.67;;;;;;;;;;5028971;28;20052;-74
2022/08/23 15:34:00;;;;;;;2.85;1.70;;;;;;;;;;5047037;28;20561;-76
2022/08/23 15:36:31;;;;;;;3.55;2.05;;;;;;;;;;5047063;28;20049;-73
2022/08/23 15:39:01;;;;;;;8.18;2.00;;;;;;;;;;5046970;28;20112;-74
2022/08/23 15:41:31;;;;;;;5.75;1.90;;;;;;;;;;5046719;28;20412;-76
2022/08/23 15:44:01;;;;;;;4.68;2.20;;;;;;;;;;5045976;28;20045;-76
2022/08/23 15:46:31;;;;;;;4.32;1.85;;;;;;;;;;5046064;28;20061;-74
2022/08/23 15:49:09;;;;;;;3.90;1.80;;;;;;;;;;5046225;28;20492;-75
2022/08/23 15:51:40;;;;;;;3.35;1.58;;;;;;;;;;5046636;28;20049;-73
2022/08/23 15:54:10;;;;;;;1.98;1.52;;;;;;;;;;5046148;28;20045;-75